Time;durP1;ratioP1;P1;durP2;ratioP2;P2;SDS_P1;SDS_P2;PMS_P1;PMS_P2;Temp;Humidity;BMP_temperature;BMP_pressure;BME280_temperature;BME280_humidity;BME280_pressure;Samples;Min_cycle;Max_cycle;Signal;HPM_P1;HPM_P2
2021/03/10 00:01:12;;;;;;;27.50;24.60;;;3.70;92.30;;;;;;4997408;28;20167;-41
2021/03/10 00:03:40;;;;;;;23.95;21.40;;;3.80;92.40;;;;;;5021696;28;20486;-40
2021/03/10 00:06:06;;;;;;;25.98;23.30;;;3.80;92.10;;;;;;5012324;28;20049;-40
2021/03/10 00:08:32;;;;;;;25.63;23.02;;;3.70;91.80;;;;;;4991172;28;20053;-40
2021/03/10 00:10:58;;;;;;;26.60;23.90;;;3.70;91.90;;;;;;5011764;28;20050;-40
2021/03/10 00:13:24;;;;;;;29.00;25.88;;;3.60;92.20;;;;;;5015442;28;20084;-40
2021/03/10 00:15:49;;;;;;;25.27;21.38;;;3.60;92.40;;;;;;4999137;28;20049;-42
2021/03/10 00:18:15;;;;;;;27.65;24.63;;;3.60;92.30;;;;;;5018926;28;20053;-40
2021/03/10 00:20:41;;;;;;;28.65;24.65;;;3.70;92.40;;;;;;5009675;28;20052;-41
2021/03/10 00:23:07;;;;;;;26.83;23.92;;;3.60;92.60;;;;;;5017384;28;20041;-40
2021/03/10 00:25:33;;;;;;;25.95;23.27;;;3.60;92.40;;;;;;5007572;28;20509;-40
2021/03/10 00:27:58;;;;;;;25.83;23.13;;;3.50;92.40;;;;;;5008464;28;20054;-40
2021/03/10 00:30:25;;;;;;;27.85;24.95;;;3.50;92.60;;;;;;5017150;28;20041;-39
2021/03/10 00:32:51;;;;;;;27.05;24.23;;;3.50;92.50;;;;;;4995246;28;20053;-39
2021/03/10 00:35:17;;;;;;;26.80;24.00;;;3.40;92.50;;;;;;4989828;28;20129;-39
2021/03/10 00:37:43;;;;;;;23.90;21.40;;;3.40;92.40;;;;;;5011071;28;20053;-40
2021/03/10 00:40:09;;;;;;;26.25;23.45;;;3.30;92.40;;;;;;4996231;28;20380;-39
2021/03/10 00:42:35;;;;;;;27.88;24.85;;;3.20;92.50;;;;;;5009914;28;20133;-40
2021/03/10 00:45:01;;;;;;;29.45;26.23;;;3.20;92.60;;;;;;4992767;28;20124;-40
2021/03/10 00:47:26;;;;;;;31.35;26.25;;;3.20;92.80;;;;;;5018461;28;20577;-42
2021/03/10 00:49:53;;;;;;;29.08;25.95;;;3.20;93.00;;;;;;5012234;28;21432;-40
2021/03/10 00:52:19;;;;;;;29.48;26.33;;;3.10;93.00;;;;;;5015007;28;20502;-41
2021/03/10 00:54:54;;;;;;;29.60;25.13;;;3.10;92.90;;;;;;4995218;28;20777;-40
2021/03/10 00:57:19;;;;;;;30.00;26.83;;;3.10;92.90;;;;;;5022677;28;20383;-42
2021/03/10 01:00:10;;;;;;;30.00;26.80;;;3.10;92.90;;;;;;5004834;28;20061;-39
2021/03/10 01:02:36;;;;;;;29.65;25.77;;;3.10;92.90;;;;;;4996960;28;20046;-40
2021/03/10 01:05:04;;;;;;;27.73;24.60;;;3.10;92.80;;;;;;5008316;28;20045;-40
2021/03/10 01:07:30;;;;;;;30.92;26.67;;;3.20;92.90;;;;;;5011139;28;20224;-39
2021/03/10 01:13:36;;;;;;;27.77;24.73;;;3.30;93.00;;;;;;5008864;28;20052;-41
2021/03/10 01:16:02;;;;;;;29.50;26.27;;;3.30;92.90;;;;;;4999547;28;20058;-38
2021/03/10 01:18:29;;;;;;;30.27;26.58;;;3.30;93.00;;;;;;5016291;28;20075;-39
2021/03/10 01:20:55;;;;;;;27.90;24.60;;;3.30;92.90;;;;;;5019848;28;20478;-40
2021/03/10 01:23:21;;;;;;;30.55;26.75;;;3.30;93.00;;;;;;5013524;28;20057;-39
2021/03/10 01:25:47;;;;;;;32.17;26.83;;;3.30;93.20;;;;;;5000088;28;20060;-40
2021/03/10 01:28:13;;;;;;;30.23;25.27;;;3.30;93.20;;;;;;5009489;28;20068;-39
2021/03/10 01:30:38;;;;;;;30.17;26.88;;;3.40;93.00;;;;;;5015699;28;20034;-39
2021/03/10 01:33:04;;;;;;;30.30;25.27;;;3.40;93.10;;;;;;5007216;28;20046;-39
2021/03/10 01:39:11;;;;;;;28.98;24.00;;;3.40;92.90;;;;;;5008311;28;20079;-40
2021/03/10 01:41:37;;;;;;;28.55;24.30;;;3.30;92.90;;;;;;5012775;28;20049;-39
2021/03/10 01:44:03;;;;;;;31.15;25.60;;;3.30;92.90;;;;;;5007446;28;20053;-40
2021/03/10 01:46:44;;;;;;;31.77;26.15;;;3.40;92.80;;;;;;5014663;28;20041;-40
2021/03/10 01:49:10;;;;;;;28.20;24.05;;;3.30;92.80;;;;;;5015078;28;20532;-40
2021/03/10 01:51:52;;;;;;;26.90;23.63;;;3.40;92.80;;;;;;5016303;28;20045;-40
2021/03/10 01:54:18;;;;;;;29.73;24.85;;;3.40;92.50;;;;;;5005386;28;20056;-40
2021/03/10 01:56:44;;;;;;;30.67;23.95;;;3.40;92.50;;;;;;5009908;28;20049;-39
2021/03/10 01:59:11;;;;;;;28.50;24.60;;;3.40;92.80;;;;;;4990107;28;20053;-40
2021/03/10 02:01:36;;;;;;;28.45;25.08;;;3.40;92.80;;;;;;5008896;28;20093;-40
2021/03/10 02:04:06;;;;;;;28.80;24.90;;;3.40;92.40;;;;;;4992504;28;20132;-39
2021/03/10 02:06:57;;;;;;;27.85;24.70;;;3.40;92.20;;;;;;5005343;28;20479;-39
2021/03/10 02:09:49;;;;;;;29.08;23.92;;;3.30;92.10;;;;;;5010381;28;20050;-39
2021/03/10 02:12:24;;;;;;;27.58;24.15;;;3.40;92.20;;;;;;4999161;28;20080;-39
2021/03/10 02:14:53;;;;;;;29.58;24.60;;;3.40;92.20;;;;;;5009655;28;20054;-40
2021/03/10 02:17:25;;;;;;;28.38;25.30;;;3.40;92.20;;;;;;4996727;28;20037;-41
2021/03/10 02:20:07;;;;;;;27.23;23.48;;;3.30;92.20;;;;;;5015778;28;20049;-39
2021/03/10 02:23:07;;;;;;;28.05;22.95;;;3.30;92.20;;;;;;4995967;28;20509;-40
2021/03/10 02:25:56;;;;;;;26.83;23.67;;;3.40;92.40;;;;;;5014995;28;20899;-41
2021/03/10 02:28:22;;;;;;;28.10;24.98;;;3.40;92.30;;;;;;5008915;28;20548;-39
2021/03/10 02:30:52;;;;;;;27.70;24.42;;;3.50;92.20;;;;;;5008517;28;20049;-39
2021/03/10 02:33:28;;;;;;;27.98;23.98;;;3.30;92.10;;;;;;4991467;28;20131;-39
2021/03/10 02:36:05;;;;;;;24.20;21.63;;;3.40;92.20;;;;;;5001971;28;20057;-41
2021/03/10 02:38:32;;;;;;;28.20;23.92;;;3.30;92.10;;;;;;5010378;28;20064;-39
2021/03/10 02:41:05;;;;;;;26.27;22.92;;;3.30;92.00;;;;;;4993108;28;20135;-39
2021/03/10 02:43:31;;;;;;;27.48;24.33;;;3.30;92.20;;;;;;5014216;28;20045;-40
2021/03/10 02:49:45;;;;;;;27.52;24.13;;;3.30;92.00;;;;;;5019657;28;20571;-39
2021/03/10 02:52:12;;;;;;;29.30;25.13;;;3.20;92.20;;;;;;5006875;28;20077;-39
2021/03/10 02:54:40;;;;;;;30.70;26.45;;;3.30;92.40;;;;;;5022627;28;20041;-39
2021/03/10 02:57:07;;;;;;;29.95;25.10;;;3.20;92.60;;;;;;5017985;28;20053;-39
2021/03/10 02:59:34;;;;;;;28.48;24.52;;;3.20;92.80;;;;;;5019615;28;20038;-42
2021/03/10 03:02:00;;;;;;;29.23;25.55;;;3.10;92.80;;;;;;5022115;28;20041;-40
2021/03/10 03:04:25;;;;;;;26.95;23.08;;;3.10;92.90;;;;;;5016065;28;20545;-39
2021/03/10 03:06:51;;;;;;;30.90;25.52;;;3.10;93.20;;;;;;5021115;28;20074;-39
2021/03/10 03:09:17;;;;;;;32.33;26.25;;;3.00;92.90;;;;;;5017786;28;20045;-39
2021/03/10 03:11:43;;;;;;;29.00;24.85;;;3.00;93.00;;;;;;5014088;28;20485;-39
2021/03/10 03:14:17;;;;;;;28.63;25.02;;;3.00;93.00;;;;;;5014678;28;20041;-40
2021/03/10 03:16:44;;;;;;;31.83;27.70;;;3.00;93.00;;;;;;5017850;28;20054;-41
2021/03/10 03:19:11;;;;;;;32.97;27.17;;;3.00;93.10;;;;;;5014761;28;20054;-40
2021/03/10 03:21:37;;;;;;;31.65;27.13;;;3.00;93.10;;;;;;5018563;28;20042;-42
2021/03/10 03:24:04;;;;;;;33.03;28.15;;;3.10;93.20;;;;;;5010005;28;20455;-40
2021/03/10 03:26:31;;;;;;;29.55;26.33;;;3.10;93.20;;;;;;5010487;28;20121;-41
2021/03/10 03:36:38;;;;;;;30.67;26.30;;;3.10;93.00;;;;;;5018796;28;20087;-40
2021/03/10 03:42:45;;;;;;;31.08;26.80;;;3.10;93.00;;;;;;5002384;28;20056;-39
2021/03/10 03:45:14;;;;;;;30.63;27.25;;;3.10;93.00;;;;;;5006191;28;20129;-39
2021/03/10 03:47:40;;;;;;;30.60;25.52;;;3.20;93.10;;;;;;5004802;28;20042;-40
2021/03/10 03:50:08;;;;;;;30.08;25.77;;;3.20;93.20;;;;;;5006189;28;20141;-40
2021/03/10 03:52:38;;;;;;;30.77;26.13;;;3.20;93.00;;;;;;5003384;28;20042;-41
2021/03/10 03:55:04;;;;;;;35.33;27.75;;;3.10;93.00;;;;;;5002335;28;20052;-40
2021/03/10 03:57:30;;;;;;;31.92;25.85;;;3.10;93.10;;;;;;5003795;28;20042;-41
2021/03/10 04:00:23;;;;;;;27.50;24.52;;;3.10;93.00;;;;;;5003884;28;20497;-39
2021/03/10 04:02:49;;;;;;;31.20;25.08;;;3.10;92.90;;;;;;4980853;28;20486;-39
2021/03/10 04:05:19;;;;;;;30.50;25.48;;;3.10;93.00;;;;;;4973142;28;20053;-40
2021/03/10 04:08:00;;;;;;;30.30;26.13;;;3.10;93.00;;;;;;5001560;28;20608;-42
2021/03/10 04:10:29;;;;;;;34.85;26.98;;;3.00;93.30;;;;;;4972063;28;20050;-41
2021/03/10 04:12:55;;;;;;;30.88;26.33;;;3.00;93.10;;;;;;5003154;28;20056;-39
2021/03/10 04:15:22;;;;;;;35.00;27.13;;;3.00;93.20;;;;;;5003361;28;20220;-40
2021/03/10 04:17:49;;;;;;;30.80;25.55;;;3.00;93.20;;;;;;4975617;28;20050;-40
2021/03/10 04:20:17;;;;;;;29.88;24.63;;;3.00;93.20;;;;;;5004903;28;20072;-40
2021/03/10 04:22:44;;;;;;;30.90;26.25;;;2.80;93.10;;;;;;5001634;28;20398;-39
2021/03/10 04:25:11;;;;;;;32.58;25.73;;;2.80;93.10;;;;;;5006132;28;20077;-39
2021/03/10 04:27:38;;;;;;;30.95;25.92;;;2.70;92.90;;;;;;5005438;28;20046;-39
2021/03/10 04:30:06;;;;;;;32.45;26.83;;;2.70;92.90;;;;;;5003994;28;20077;-40
2021/03/10 04:32:32;;;;;;;31.30;24.90;;;2.60;93.00;;;;;;5001888;28;20053;-40
2021/03/10 04:39:01;;;;;;;33.22;26.40;;;2.60;92.80;;;;;;5002628;28;20226;-39
2021/03/10 04:42:17;;;;;;;34.67;28.33;;;2.50;92.90;;;;;;5013287;23;20064;-40
2021/03/10 04:45:33;;;;;;;32.60;26.73;;;2.50;93.00;;;;;;5024374;28;20497;-40
2021/03/10 04:47:59;;;;;;;31.58;25.80;;;2.40;93.00;;;;;;5015033;28;20116;-39
2021/03/10 04:50:25;;;;;;;33.53;26.00;;;2.30;93.10;;;;;;5019204;28;20538;-41
2021/03/10 04:52:51;;;;;;;34.72;27.45;;;2.30;93.10;;;;;;4994256;28;20038;-42
2021/03/10 04:55:20;;;;;;;32.75;26.10;;;2.30;93.10;;;;;;5017301;28;20048;-40
2021/03/10 04:57:55;;;;;;;33.72;26.48;;;2.30;93.20;;;;;;5012559;28;20081;-40
2021/03/10 05:00:23;;;;;;;36.03;27.50;;;2.30;93.20;;;;;;5016535;28;20200;-42
2021/03/10 05:02:49;;;;;;;33.47;26.67;;;2.40;93.30;;;;;;5006257;28;20494;-40
2021/03/10 05:05:15;;;;;;;36.95;28.15;;;2.30;93.30;;;;;;4992768;28;20099;-40
2021/03/10 05:07:41;;;;;;;33.95;25.88;;;2.30;93.30;;;;;;5020694;28;20374;-41
2021/03/10 05:10:08;;;;;;;39.00;28.58;;;2.30;93.30;;;;;;5013049;28;20034;-40
2021/03/10 05:12:34;;;;;;;34.70;27.58;;;2.30;93.30;;;;;;5010777;28;20073;-41
2021/03/10 05:15:01;;;;;;;33.65;26.75;;;2.20;93.30;;;;;;4993778;28;20901;-42
2021/03/10 05:17:27;;;;;;;35.35;28.75;;;2.20;93.30;;;;;;4982314;28;20056;-40
2021/03/10 05:19:54;;;;;;;37.67;27.50;;;2.20;93.70;;;;;;5009705;28;20124;-40
2021/03/10 05:22:20;;;;;;;38.05;27.67;;;2.20;93.60;;;;;;5005118;28;20053;-41
2021/03/10 05:24:47;;;;;;;38.15;29.42;;;2.20;93.60;;;;;;5011165;28;20060;-40
2021/03/10 05:27:13;;;;;;;42.42;31.08;;;2.20;93.70;;;;;;5005374;28;20049;-41
2021/03/10 05:29:39;;;;;;;41.72;32.40;;;2.20;93.80;;;;;;5014575;28;20045;-42
2021/03/10 05:32:42;;;;;;;46.30;32.90;;;2.20;93.80;;;;;;5018606;28;20053;-41
2021/03/10 05:35:20;;;;;;;45.38;33.55;;;2.20;94.00;;;;;;5017026;28;20155;-42
2021/03/10 05:37:46;;;;;;;45.17;32.05;;;2.20;94.00;;;;;;5017890;28;20046;-40
2021/03/10 05:40:11;;;;;;;42.47;31.42;;;2.30;94.20;;;;;;4997543;28;20076;-45
2021/03/10 05:42:40;;;;;;;47.70;34.60;;;2.40;94.20;;;;;;5013789;28;20406;-41
2021/03/10 05:45:07;;;;;;;46.90;32.83;;;2.40;94.20;;;;;;4998854;28;20630;-41
2021/03/10 05:47:33;;;;;;;49.30;34.65;;;2.40;94.30;;;;;;5008667;28;20049;-40
2021/03/10 05:49:59;;;;;;;47.20;33.85;;;2.50;94.30;;;;;;5011010;28;20046;-40
2021/03/10 05:52:25;;;;;;;47.50;34.63;;;2.50;94.40;;;;;;4997937;28;20623;-40
2021/03/10 05:54:54;;;;;;;47.08;34.25;;;2.60;94.40;;;;;;5011383;28;20120;-41
2021/03/10 05:57:20;;;;;;;47.83;35.25;;;2.50;94.40;;;;;;5009650;28;20053;-42
2021/03/10 05:59:45;;;;;;;46.42;34.08;;;2.80;94.60;;;;;;5017951;28;20037;-41
2021/03/10 06:02:11;;;;;;;40.20;33.58;;;2.90;94.40;;;;;;5011693;28;20045;-43
2021/03/10 06:04:44;;;;;;;40.13;32.67;;;3.10;94.40;;;;;;5001995;28;20151;-43
2021/03/10 06:07:22;;;;;;;;;;;3.10;94.10;;;;;;5010079;28;20046;-41
2021/03/10 06:10:05;;;;;;;41.20;31.92;;;3.10;93.80;;;;;;5009619;28;19952;-43
2021/03/10 06:12:42;;;;;;;39.88;31.80;;;3.10;93.80;;;;;;5019108;28;20048;-41
2021/03/10 06:15:10;;;;;;;38.70;30.65;;;3.10;93.80;;;;;;5017309;28;20683;-41
2021/03/10 06:17:44;;;;;;;38.35;31.75;;;3.20;93.70;;;;;;5006341;28;20145;-43
2021/03/10 06:20:21;;;;;;;38.83;31.90;;;3.20;93.70;;;;;;5014494;28;20050;-41
2021/03/10 06:22:47;;;;;;;38.22;30.40;;;3.30;93.70;;;;;;5012934;28;20054;-43
2021/03/10 06:25:13;;;;;;;36.40;31.00;;;3.20;93.60;;;;;;5005708;28;20355;-43
2021/03/10 06:28:00;;;;;;;38.25;29.63;;;3.20;93.60;;;;;;5012546;28;20052;-41
2021/03/10 06:30:41;;;;;;;37.17;30.10;;;3.30;93.60;;;;;;4998506;28;20081;-43
2021/03/10 06:33:08;;;;;;;38.00;32.03;;;3.30;93.60;;;;;;5019884;28;20777;-44
2021/03/10 06:35:36;;;;;;;86.05;65.97;;;3.30;93.60;;;;;;4999385;28;20053;-38
2021/03/10 06:38:12;;;;;;;70.55;53.50;;;3.30;93.60;;;;;;5021444;28;20413;-38
2021/03/10 06:40:59;;;;;;;90.95;69.07;;;3.30;93.50;;;;;;4979787;28;20073;-39
2021/03/10 06:43:39;;;;;;;49.17;37.88;;;3.30;93.60;;;;;;4958140;28;20117;-37
2021/03/10 06:46:18;;;;;;;48.25;38.75;;;3.30;93.50;;;;;;4979117;28;20047;-38
2021/03/10 06:48:55;;;;;;;46.78;34.90;;;3.30;93.50;;;;;;4962817;28;20533;-37
2021/03/10 06:51:21;;;;;;;42.35;32.53;;;3.30;93.90;;;;;;4974583;28;20046;-37
2021/03/10 06:53:47;;;;;;;39.50;31.77;;;3.30;93.50;;;;;;4954147;28;20055;-37
2021/03/10 06:56:28;;;;;;;118.43;94.13;;;3.30;93.40;;;;;;4981657;28;21337;-38
2021/03/10 06:58:58;;;;;;;113.88;88.28;;;3.40;93.40;;;;;;4982443;28;20043;-38
2021/03/10 07:01:26;;;;;;;50.65;38.58;;;3.40;93.40;;;;;;4980490;28;20050;-38
2021/03/10 07:03:56;;;;;;;46.90;37.95;;;3.50;93.30;;;;;;4980223;28;20047;-38
2021/03/10 07:06:23;;;;;;;52.00;40.40;;;3.50;93.30;;;;;;4980075;28;20104;-38
2021/03/10 07:08:49;;;;;;;40.63;32.10;;;3.50;93.20;;;;;;4981451;28;20042;-38
2021/03/10 07:11:15;;;;;;;38.83;32.58;;;3.50;93.10;;;;;;4975296;28;20380;-39
2021/03/10 07:13:45;;;;;;;36.13;30.23;;;3.50;93.00;;;;;;4962797;28;20066;-38
2021/03/10 07:16:11;;;;;;;38.30;31.30;;;3.50;92.80;;;;;;4982156;28;20042;-38
2021/03/10 07:18:38;;;;;;;35.17;28.95;;;3.60;92.60;;;;;;4979360;28;20054;-40
2021/03/10 07:21:06;;;;;;;33.85;26.15;;;3.60;92.30;;;;;;4983770;28;20060;-38
2021/03/10 07:23:45;;;;;;;34.75;29.00;;;3.60;92.20;;;;;;4961259;28;20050;-38
2021/03/10 07:26:13;;;;;;;34.92;27.52;;;3.60;92.30;;;;;;4981115;28;20137;-38
2021/03/10 07:28:42;;;;;;;161.52;124.70;;;3.70;92.40;;;;;;4972466;28;20452;-38
2021/03/10 07:31:20;;;;;;;61.53;46.60;;;3.70;92.20;;;;;;4968337;28;20510;-38
2021/03/10 07:33:54;;;;;;;31.42;26.23;;;3.80;92.30;;;;;;4970642;28;20050;-39
2021/03/10 07:36:35;;;;;;;33.90;27.40;;;3.80;91.90;;;;;;4985595;28;20570;-38
2021/03/10 07:39:02;;;;;;;40.97;33.13;;;3.80;92.00;;;;;;4966185;28;20154;-38
2021/03/10 07:41:38;;;;;;;33.58;25.60;;;3.90;91.40;;;;;;4934346;28;20543;-38
2021/03/10 07:44:15;;;;;;;31.10;25.92;;;3.90;91.70;;;;;;4978848;28;20422;-39
2021/03/10 07:46:42;;;;;;;33.67;25.67;;;4.00;91.70;;;;;;4987669;28;20496;-39
2021/03/10 07:49:24;;;;;;;30.73;26.13;;;4.00;91.50;;;;;;4986075;28;20046;-39
2021/03/10 07:52:01;;;;;;;28.08;22.98;;;4.00;91.40;;;;;;4983929;28;20050;-38
2021/03/10 07:54:27;;;;;;;30.08;24.13;;;4.10;91.40;;;;;;4967193;28;20039;-40
2021/03/10 07:57:11;;;;;;;29.88;24.40;;;4.10;91.50;;;;;;4969671;28;20050;-41
2021/03/10 07:59:38;;;;;;;33.95;27.10;;;4.20;91.10;;;;;;4985440;28;20042;-40
2021/03/10 08:02:09;;;;;;;30.92;25.38;;;4.20;90.90;;;;;;4983966;28;20334;-46
2021/03/10 08:04:38;;;;;;;29.40;23.20;;;4.30;91.30;;;;;;4985359;28;20077;-43
2021/03/10 08:07:03;;;;;;;49.63;36.88;;;4.30;90.90;;;;;;4985815;28;20038;-43
2021/03/10 08:09:30;;;;;;;45.00;33.45;;;4.40;91.40;;;;;;4987954;28;20049;-43
2021/03/10 08:12:35;;;;;;;41.42;32.92;;;4.50;91.50;;;;;;4965901;28;20105;-44
2021/03/10 08:15:02;;;;;;;43.58;33.38;;;4.50;91.10;;;;;;4914817;29;20056;-43
2021/03/10 08:17:29;;;;;;;28.70;23.75;;;4.50;90.70;;;;;;4916794;29;20469;-42
2021/03/10 08:20:08;;;;;;;40.03;31.02;;;4.50;91.10;;;;;;4915150;29;20059;-42
2021/03/10 08:22:34;;;;;;;30.42;24.67;;;4.50;90.80;;;;;;4910970;29;20079;-42
2021/03/10 08:25:02;;;;;;;30.17;25.25;;;4.60;91.20;;;;;;4920143;29;20059;-45
2021/03/10 08:27:39;;;;;;;28.15;23.60;;;4.70;91.10;;;;;;4914073;29;20056;-42
2021/03/10 08:30:14;;;;;;;29.27;23.70;;;4.60;91.00;;;;;;4900570;29;20044;-43
2021/03/10 08:32:40;;;;;;;31.63;25.23;;;4.70;91.10;;;;;;4915649;29;20088;-42
2021/03/10 08:35:18;;;;;;;29.63;24.52;;;4.70;91.30;;;;;;4915897;29;20062;-41
2021/03/10 08:37:54;;;;;;;28.98;24.30;;;4.80;91.20;;;;;;4916351;29;20520;-44
2021/03/10 08:40:23;;;;;;;32.72;25.48;;;4.80;90.80;;;;;;4918865;29;20055;-47
2021/03/10 08:42:50;;;;;;;33.50;25.50;;;4.80;90.90;;;;;;4917583;29;20100;-42
2021/03/10 08:45:24;;;;;;;32.90;27.10;;;4.90;91.10;;;;;;4915712;29;20059;-43
2021/03/10 08:48:02;;;;;;;33.13;27.55;;;4.90;91.00;;;;;;4919344;29;20052;-43
2021/03/10 08:50:34;;;;;;;34.28;25.92;;;5.00;90.90;;;;;;4913327;28;20052;-44
2021/03/10 08:52:59;;;;;;;32.30;27.65;;;5.00;90.90;;;;;;4983356;28;20050;-44
2021/03/10 08:55:26;;;;;;;33.35;27.10;;;5.00;90.60;;;;;;4984240;28;20049;-44
2021/03/10 08:57:58;;;;;;;33.72;27.13;;;5.10;91.10;;;;;;4965503;28;20058;-42
2021/03/10 09:00:27;;;;;;;34.75;27.98;;;5.20;91.30;;;;;;4980782;28;20045;-45
2021/03/10 09:02:53;;;;;;;36.55;29.35;;;5.20;90.80;;;;;;4987786;28;20054;-45
2021/03/10 09:05:28;;;;;;;34.97;27.45;;;5.20;90.70;;;;;;4964887;28;20066;-44
2021/03/10 09:07:54;;;;;;;40.67;31.77;;;5.30;90.70;;;;;;4980832;28;20145;-45
2021/03/10 09:10:23;;;;;;;65.40;51.42;;;5.40;91.10;;;;;;4984731;28;20502;-43
2021/03/10 09:12:52;;;;;;;52.13;41.90;;;5.50;90.90;;;;;;4985235;28;20046;-44
2021/03/10 09:15:20;;;;;;;50.67;39.55;;;5.60;90.80;;;;;;4980417;28;20538;-43
2021/03/10 09:17:46;;;;;;;35.28;30.40;;;5.70;90.60;;;;;;4984503;28;20093;-45
2021/03/10 09:20:43;;;;;;;35.42;29.52;;;5.70;90.50;;;;;;4969052;28;20073;-45
2021/03/10 09:23:10;;;;;;;34.78;28.70;;;5.80;90.30;;;;;;4904308;29;20104;-44
2021/03/10 09:25:38;;;;;;;38.88;32.10;;;5.90;90.40;;;;;;4906218;29;20052;-47
2021/03/10 09:28:15;;;;;;;35.92;30.67;;;5.90;90.80;;;;;;4904872;29;20072;-44
2021/03/10 09:30:46;;;;;;;39.92;32.67;;;6.00;90.70;;;;;;4905185;29;20048;-45
2021/03/10 09:33:25;;;;;;;39.60;32.20;;;6.00;90.40;;;;;;4902398;29;20063;-42
2021/03/10 09:35:56;;;;;;;58.90;45.45;;;6.10;90.70;;;;;;4902794;29;20203;-45
2021/03/10 09:38:27;;;;;;;115.28;87.82;;;6.20;90.50;;;;;;4903913;29;20063;-39
2021/03/10 09:40:59;;;;;;;46.90;39.55;;;6.30;90.50;;;;;;4901980;29;20105;-39
2021/03/10 09:43:28;;;;;;;46.35;35.70;;;6.40;90.20;;;;;;4904050;29;20146;-40
2021/03/10 09:46:00;;;;;;;42.55;34.35;;;6.50;90.50;;;;;;4900216;29;20052;-39
2021/03/10 09:48:33;;;;;;;;;;;6.40;89.50;;;;;;4900919;29;20052;-40
2021/03/10 09:51:19;;;;;;;47.35;35.83;;;6.50;90.00;;;;;;4911830;29;19931;-39
2021/03/10 09:53:49;;;;;;;41.53;33.88;;;6.60;90.00;;;;;;4905995;29;20123;-40
2021/03/10 09:56:17;;;;;;;45.25;35.58;;;6.70;89.50;;;;;;4904929;29;20067;-39
2021/03/10 09:58:58;;;;;;;44.88;36.85;;;6.70;90.10;;;;;;4914552;28;20522;-40
2021/03/10 10:01:26;;;;;;;47.30;35.95;;;6.90;90.20;;;;;;4983326;28;20042;-45
2021/03/10 10:03:53;;;;;;;47.83;36.53;;;6.70;89.10;;;;;;4984970;28;20169;-43
2021/03/10 10:06:20;;;;;;;46.17;38.95;;;6.80;90.20;;;;;;4981179;28;20057;-45
2021/03/10 10:08:47;;;;;;;45.80;38.60;;;6.80;90.30;;;;;;4983311;28;20054;-44
2021/03/10 10:11:14;;;;;;;94.30;74.53;;;6.90;90.50;;;;;;4963995;28;20046;-43
2021/03/10 10:13:45;;;;;;;46.70;38.25;;;6.80;89.90;;;;;;4982440;28;20054;-38
2021/03/10 10:16:13;;;;;;;42.67;35.72;;;6.80;90.40;;;;;;4983081;28;20109;-37
2021/03/10 10:18:39;;;;;;;47.60;37.47;;;6.70;90.10;;;;;;4984036;28;20053;-36
2021/03/10 10:21:05;;;;;;;48.42;38.80;;;6.60;90.10;;;;;;4985569;28;20046;-37
2021/03/10 10:23:31;;;;;;;46.60;38.17;;;6.60;90.30;;;;;;4966831;28;20052;-37
2021/03/10 10:25:57;;;;;;;45.58;37.25;;;6.60;90.50;;;;;;4983047;28;20046;-36
2021/03/10 10:28:23;;;;;;;50.20;38.08;;;6.60;90.30;;;;;;4968353;28;20113;-37
2021/03/10 10:30:49;;;;;;;44.72;37.42;;;6.60;90.30;;;;;;4984048;28;20050;-36
2021/03/10 10:33:15;;;;;;;48.30;39.30;;;6.70;90.30;;;;;;4981769;28;20089;-36
2021/03/10 10:35:41;;;;;;;48.08;38.92;;;6.70;90.50;;;;;;4982651;28;20057;-36
2021/03/10 10:38:08;;;;;;;50.47;38.60;;;6.80;90.60;;;;;;4983359;28;20077;-37
2021/03/10 10:40:36;;;;;;;47.95;38.85;;;6.80;90.70;;;;;;4983207;28;20054;-39
2021/03/10 10:43:02;;;;;;;50.13;37.97;;;6.80;90.40;;;;;;4983771;28;20047;-37
2021/03/10 10:45:28;;;;;;;49.78;37.42;;;6.90;90.40;;;;;;4981140;28;20061;-37
2021/03/10 10:47:54;;;;;;;45.58;36.75;;;6.90;90.40;;;;;;4982768;28;20034;-37
2021/03/10 10:50:20;;;;;;;48.80;40.28;;;6.90;90.20;;;;;;4982939;28;20393;-37
2021/03/10 10:52:47;;;;;;;45.47;35.97;;;6.90;90.30;;;;;;4984990;28;20054;-38
2021/03/10 10:55:18;;;;;;;46.72;38.78;;;6.90;90.30;;;;;;4988204;28;20151;-37
2021/03/10 10:57:45;;;;;;;47.95;38.85;;;6.90;90.40;;;;;;4963627;28;20062;-40
2021/03/10 11:00:16;;;;;;;47.90;37.88;;;7.00;90.30;;;;;;4982606;28;20481;-43
2021/03/10 11:02:43;;;;;;;46.80;37.45;;;7.00;90.30;;;;;;4964451;28;20835;-39
2021/03/10 11:05:10;;;;;;;41.72;36.00;;;7.10;90.50;;;;;;4984222;28;20066;-39
2021/03/10 11:07:36;;;;;;;42.80;35.45;;;7.10;90.00;;;;;;4968536;28;20050;-40
2021/03/10 11:10:02;;;;;;;45.65;35.40;;;7.10;90.20;;;;;;4987389;28;20052;-41
2021/03/10 11:12:28;;;;;;;46.88;37.90;;;7.10;89.90;;;;;;4984336;28;20062;-40
2021/03/10 11:14:55;;;;;;;44.58;37.03;;;7.20;90.20;;;;;;4985070;28;20172;-41
2021/03/10 11:17:24;;;;;;;43.50;36.90;;;7.30;90.40;;;;;;4983557;28;20495;-40
2021/03/10 11:19:54;;;;;;;41.80;35.63;;;7.20;90.00;;;;;;4983237;28;20759;-41
2021/03/10 11:22:20;;;;;;;41.35;35.95;;;7.30;89.80;;;;;;4986204;28;20046;-39
2021/03/10 11:24:46;;;;;;;44.53;37.50;;;7.30;90.10;;;;;;4986564;28;20042;-40
2021/03/10 11:27:27;;;;;;;41.40;34.40;;;7.30;89.50;;;;;;4942422;29;20055;-41
2021/03/10 11:29:53;;;;;;;48.33;37.15;;;7.30;89.90;;;;;;4943549;29;20772;-40
2021/03/10 11:32:19;;;;;;;49.67;35.47;;;7.30;89.30;;;;;;4944377;29;20047;-43
2021/03/10 11:34:48;;;;;;;44.92;36.97;;;7.40;90.10;;;;;;4947106;28;20051;-41
2021/03/10 11:37:15;;;;;;;39.78;33.88;;;7.40;89.90;;;;;;4942269;29;20043;-40
2021/03/10 11:39:41;;;;;;;45.28;36.83;;;7.40;90.00;;;;;;4945256;29;20703;-40
2021/03/10 11:42:07;;;;;;;40.92;34.38;;;7.40;90.00;;;;;;4943795;29;20947;-40
2021/03/10 11:44:33;;;;;;;42.00;34.13;;;7.40;88.80;;;;;;4943150;29;20079;-40
2021/03/10 11:46:59;;;;;;;42.70;35.97;;;7.40;89.90;;;;;;4942403;29;20146;-41
2021/03/10 11:49:25;;;;;;;40.22;34.80;;;7.50;89.60;;;;;;4946370;28;20665;-41
2021/03/10 11:51:51;;;;;;;74.57;61.55;;;7.50;89.50;;;;;;4944329;28;20059;-42
2021/03/10 11:54:18;;;;;;;51.83;43.95;;;7.60;89.30;;;;;;4943874;29;20043;-42
2021/03/10 11:56:44;;;;;;;38.92;33.70;;;7.60;89.30;;;;;;4942890;29;20047;-43
2021/03/10 11:59:09;;;;;;;40.65;34.35;;;7.70;89.00;;;;;;4945649;28;20122;-41
2021/03/10 12:01:39;;;;;;;44.95;38.58;;;7.70;88.90;;;;;;4946499;28;20059;-41
2021/03/10 12:04:05;;;;;;;46.25;33.72;;;7.70;88.40;;;;;;4951459;28;20051;-41
2021/03/10 12:06:32;;;;;;;40.53;32.30;;;7.70;88.40;;;;;;4967765;28;20067;-41
2021/03/10 12:08:58;;;;;;;40.63;33.58;;;7.80;88.30;;;;;;4986946;28;20101;-41
2021/03/10 12:11:24;;;;;;;42.42;34.22;;;7.80;88.20;;;;;;4986578;28;20054;-41
2021/03/10 12:13:50;;;;;;;41.30;34.67;;;7.80;88.00;;;;;;4958474;28;20192;-39
2021/03/10 12:16:16;;;;;;;40.63;33.80;;;7.70;87.30;;;;;;4983263;28;20077;-41
2021/03/10 12:18:42;;;;;;;38.60;34.03;;;7.70;88.10;;;;;;4968345;28;20535;-40
2021/03/10 12:21:08;;;;;;;41.10;33.47;;;7.70;87.30;;;;;;4987320;28;20487;-40
2021/03/10 12:23:34;;;;;;;42.25;34.10;;;7.70;87.80;;;;;;4984652;28;20053;-40
2021/03/10 12:26:01;;;;;;;39.13;32.85;;;7.70;87.00;;;;;;4967412;28;20061;-39
2021/03/10 12:28:27;;;;;;;39.88;32.92;;;7.70;87.20;;;;;;4985699;28;20558;-40
2021/03/10 12:30:53;;;;;;;38.22;32.83;;;7.70;85.80;;;;;;4988593;28;20922;-40
2021/03/10 12:33:19;;;;;;;38.50;32.53;;;7.80;87.00;;;;;;4986888;28;20050;-40
2021/03/10 12:35:45;;;;;;;39.95;32.00;;;7.80;87.20;;;;;;4985965;28;20363;-42
2021/03/10 12:38:10;;;;;;;41.03;32.92;;;7.80;86.70;;;;;;4985184;28;20673;-43
2021/03/10 12:40:36;;;;;;;42.83;32.30;;;7.80;85.70;;;;;;4986235;28;20064;-44
2021/03/10 12:43:02;;;;;;;39.38;31.98;;;7.80;86.40;;;;;;4985775;28;20045;-44
2021/03/10 12:45:28;;;;;;;40.15;32.97;;;7.80;86.70;;;;;;4985044;28;20113;-46
2021/03/10 12:47:54;;;;;;;39.25;31.92;;;7.80;85.10;;;;;;4987614;28;20049;-45
2021/03/10 12:50:19;;;;;;;40.95;32.13;;;7.90;85.70;;;;;;4985776;28;20391;-43
2021/03/10 12:52:45;;;;;;;37.22;31.05;;;7.90;85.90;;;;;;4985231;28;20109;-41
2021/03/10 12:55:12;;;;;;;41.95;33.60;;;7.90;87.10;;;;;;4966894;28;20053;-39
2021/03/10 12:57:38;;;;;;;37.53;32.00;;;7.90;85.40;;;;;;4984936;28;20530;-40
2021/03/10 13:00:07;;;;;;;37.17;30.60;;;8.00;85.50;;;;;;4967983;28;20092;-39
2021/03/10 13:02:34;;;;;;;36.30;32.05;;;7.90;84.70;;;;;;4969256;28;20141;-40
2021/03/10 13:05:00;;;;;;;44.42;34.10;;;8.00;85.40;;;;;;4984760;28;20131;-39
2021/03/10 13:07:25;;;;;;;38.80;32.88;;;7.90;85.20;;;;;;4969651;28;20050;-39
2021/03/10 13:09:51;;;;;;;39.35;31.67;;;7.90;85.10;;;;;;4986163;28;20038;-42
2021/03/10 13:12:17;;;;;;;36.33;31.00;;;7.90;85.00;;;;;;4984334;28;20665;-41
2021/03/10 13:14:43;;;;;;;39.45;30.77;;;8.00;85.50;;;;;;4985432;28;20042;-41
2021/03/10 13:17:14;;;;;;;35.55;30.27;;;8.00;85.10;;;;;;4984020;28;20670;-39